createdAt,value
2018-07-07T00:00:53.237Z,0.00
2018-07-07T00:01:53.236Z,0.00
2018-07-07T00:02:53.235Z,0.00
2018-07-07T00:03:53.234Z,0.00
2018-07-07T00:04:53.234Z,0.00
2018-07-07T00:05:53.232Z,0.00
2018-07-07T00:06:53.233Z,0.00
2018-07-07T00:07:53.232Z,0.00
2018-07-07T00:08:53.231Z,0.00
2018-07-07T00:09:53.232Z,0.00
2018-07-07T00:10:53.230Z,0.00
2018-07-07T00:11:53.230Z,0.00
2018-07-07T00:12:53.228Z,0.00
2018-07-07T00:13:53.229Z,0.00
2018-07-07T00:14:53.227Z,0.00
2018-07-07T00:15:53.227Z,0.00
2018-07-07T00:16:53.227Z,0.00
2018-07-07T00:17:53.226Z,0.00
2018-07-07T00:18:53.225Z,0.00
2018-07-07T00:19:53.225Z,0.00
2018-07-07T00:20:53.225Z,0.00
2018-07-07T00:21:53.224Z,0.00
2018-07-07T00:22:53.223Z,0.00
2018-07-07T00:23:53.223Z,0.00
2018-07-07T00:24:53.223Z,0.00
2018-07-07T00:25:53.222Z,0.00
2018-07-07T00:26:53.220Z,0.00
2018-07-07T00:27:53.219Z,0.00
2018-07-07T00:28:53.219Z,0.00
2018-07-07T00:29:53.219Z,0.00
2018-07-07T00:30:53.221Z,0.00
2018-07-07T00:31:53.217Z,0.00
2018-07-07T00:32:53.216Z,0.00
2018-07-07T00:33:53.215Z,0.00
2018-07-07T00:34:53.216Z,0.00
2018-07-07T00:35:53.217Z,0.00
2018-07-07T00:36:53.214Z,0.00
2018-07-07T00:37:53.214Z,0.00
2018-07-07T00:38:53.213Z,0.00
2018-07-07T00:39:53.211Z,0.00
2018-07-07T00:40:53.213Z,0.00
2018-07-07T00:41:53.211Z,0.00
2018-07-07T00:42:53.211Z,0.00
2018-07-07T00:43:53.211Z,0.00
2018-07-07T00:44:53.210Z,0.00
2018-07-07T00:45:53.207Z,0.00
2018-07-07T00:46:53.207Z,0.00
2018-07-07T00:47:53.207Z,0.00
2018-07-07T00:48:53.206Z,0.00
2018-07-07T00:49:53.204Z,0.00
2018-07-07T00:50:53.205Z,0.00
2018-07-07T00:51:53.205Z,0.00
2018-07-07T00:52:53.205Z,0.00
2018-07-07T00:53:53.203Z,0.00
2018-07-07T00:54:53.203Z,0.00
2018-07-07T00:55:53.203Z,0.00
2018-07-07T00:56:53.202Z,0.00
2018-07-07T00:57:53.200Z,0.00
2018-07-07T00:58:53.200Z,0.00
2018-07-07T00:59:53.201Z,0.00
2018-07-07T01:00:53.200Z,0.00
2018-07-07T01:01:53.200Z,0.00
2018-07-07T01:02:53.202Z,0.00
2018-07-07T01:03:53.199Z,0.00
2018-07-07T01:04:53.198Z,0.00
2018-07-07T01:05:53.200Z,0.00
2018-07-07T01:06:53.197Z,0.00
2018-07-07T01:07:53.194Z,0.00
2018-07-07T01:08:53.195Z,0.00
2018-07-07T01:09:53.197Z,0.00
2018-07-07T01:10:53.193Z,0.00
2018-07-07T01:11:53.194Z,0.00
2018-07-07T01:12:53.193Z,0.00
2018-07-07T01:13:53.190Z,0.00
2018-07-07T01:14:53.192Z,0.00
2018-07-07T01:15:53.191Z,0.00
2018-07-07T01:16:53.190Z,0.00
2018-07-07T01:17:53.190Z,0.00
2018-07-07T01:18:53.189Z,0.00
2018-07-07T01:19:53.188Z,0.00
2018-07-07T01:20:53.189Z,0.00
2018-07-07T01:21:53.189Z,0.00
2018-07-07T01:22:53.187Z,0.00
2018-07-07T01:23:53.187Z,0.00
2018-07-07T01:24:53.187Z,0.00
2018-07-07T01:25:53.185Z,0.00
2018-07-07T01:26:53.184Z,0.00
2018-07-07T01:27:53.186Z,0.00
2018-07-07T01:28:53.182Z,0.00
2018-07-07T01:29:53.181Z,0.00
2018-07-07T01:30:53.182Z,0.00
2018-07-07T01:31:53.182Z,0.00
2018-07-07T01:32:53.182Z,0.00
2018-07-07T01:33:53.180Z,0.00
2018-07-07T01:34:53.180Z,0.00
2018-07-07T01:35:53.179Z,0.00
2018-07-07T01:36:53.183Z,0.00
2018-07-07T01:37:53.178Z,0.00
2018-07-07T01:38:53.177Z,0.00
2018-07-07T01:39:53.177Z,0.00
2018-07-07T01:40:53.176Z,0.00
2018-07-07T01:41:53.176Z,0.00
2018-07-07T01:42:53.178Z,0.00
2018-07-07T01:43:53.174Z,0.00
2018-07-07T01:44:53.174Z,0.00
2018-07-07T01:45:53.172Z,0.00
2018-07-07T01:46:53.172Z,0.00
2018-07-07T01:47:53.172Z,0.00
2018-07-07T01:48:53.171Z,0.00
2018-07-07T01:49:53.169Z,0.00
2018-07-07T01:50:53.168Z,0.00
2018-07-07T01:51:53.168Z,0.00
2018-07-07T01:52:53.168Z,0.00
2018-07-07T01:53:53.166Z,0.00
2018-07-07T01:54:53.166Z,0.00
2018-07-07T01:55:53.166Z,0.00
2018-07-07T01:56:53.165Z,0.00
2018-07-07T01:57:53.167Z,0.00
2018-07-07T01:58:53.165Z,0.00
2018-07-07T01:59:53.163Z,0.00
2018-07-07T02:00:53.163Z,0.00
2018-07-07T02:01:53.162Z,0.00
2018-07-07T02:02:53.160Z,0.00
2018-07-07T02:03:53.162Z,0.00
2018-07-07T02:04:53.160Z,0.00
2018-07-07T02:05:53.158Z,0.00
2018-07-07T02:06:53.157Z,0.00
2018-07-07T02:07:53.157Z,0.00
2018-07-07T02:08:53.157Z,0.00
2018-07-07T02:09:53.156Z,0.00
2018-07-07T02:10:53.155Z,0.00
2018-07-07T02:11:53.156Z,0.00
2018-07-07T02:12:53.153Z,0.00
2018-07-07T02:13:53.153Z,0.00
2018-07-07T02:14:53.152Z,0.00
2018-07-07T02:15:53.152Z,0.00
2018-07-07T02:16:53.151Z,0.00
2018-07-07T02:17:53.150Z,0.00
2018-07-07T02:18:53.286Z,0.00
2018-07-07T02:19:53.149Z,0.00
2018-07-07T02:20:53.148Z,0.00
2018-07-07T02:21:53.147Z,0.00
2018-07-07T02:22:53.147Z,0.00
2018-07-07T02:23:53.150Z,0.00
2018-07-07T02:24:53.149Z,0.00
2018-07-07T02:25:53.145Z,0.00
2018-07-07T02:26:53.144Z,0.00
2018-07-07T02:27:53.144Z,0.00
2018-07-07T02:28:53.144Z,0.00
2018-07-07T02:29:53.142Z,0.00
2018-07-07T02:30:53.149Z,0.00
2018-07-07T02:31:53.142Z,0.00
2018-07-07T02:32:53.143Z,0.00
2018-07-07T02:33:53.140Z,0.00
2018-07-07T02:34:53.140Z,0.00
2018-07-07T02:35:53.140Z,0.00
2018-07-07T02:36:53.138Z,0.00
2018-07-07T02:37:53.137Z,0.00
2018-07-07T02:38:53.137Z,0.00
2018-07-07T02:39:53.137Z,0.00
2018-07-07T02:40:53.136Z,0.00
2018-07-07T02:41:53.135Z,0.00
2018-07-07T02:42:53.134Z,0.00
2018-07-07T02:43:53.134Z,0.00
2018-07-07T02:44:53.135Z,0.00
2018-07-07T02:45:53.132Z,0.00
2018-07-07T02:46:53.131Z,0.00
2018-07-07T02:47:53.131Z,0.00
2018-07-07T02:48:53.131Z,0.00
2018-07-07T02:49:53.130Z,0.00
2018-07-07T02:50:53.130Z,0.00
2018-07-07T02:51:53.128Z,0.00
2018-07-07T02:52:53.129Z,0.00
2018-07-07T02:53:53.128Z,0.00
2018-07-07T02:54:53.127Z,0.00
2018-07-07T02:55:53.128Z,0.00
2018-07-07T02:56:53.127Z,0.00
2018-07-07T02:57:53.126Z,0.00
2018-07-07T02:58:53.126Z,0.00
2018-07-07T02:59:53.125Z,0.00
2018-07-07T03:00:53.127Z,0.00
2018-07-07T03:01:53.122Z,0.00
2018-07-07T03:02:53.123Z,0.00
2018-07-07T03:03:53.122Z,0.00
2018-07-07T03:04:53.121Z,0.00
2018-07-07T03:05:53.121Z,0.00
2018-07-07T03:06:53.120Z,0.00
2018-07-07T03:07:53.119Z,0.00
2018-07-07T03:08:53.119Z,0.00
2018-07-07T03:09:53.118Z,0.00
2018-07-07T03:10:53.117Z,0.00
2018-07-07T03:11:53.117Z,0.00
2018-07-07T03:12:53.117Z,0.00
2018-07-07T03:13:53.114Z,0.00
2018-07-07T03:14:53.116Z,0.00
2018-07-07T03:15:53.115Z,0.00
2018-07-07T03:16:53.114Z,0.00
2018-07-07T03:17:53.113Z,0.00
2018-07-07T03:18:53.115Z,0.00
2018-07-07T03:19:53.111Z,0.00
2018-07-07T03:20:53.117Z,0.00
2018-07-07T03:21:53.110Z,0.00
2018-07-07T03:22:53.110Z,0.00
2018-07-07T03:23:53.109Z,0.00
2018-07-07T03:24:53.113Z,0.00
2018-07-07T03:25:53.107Z,0.00
2018-07-07T03:26:53.107Z,0.00
2018-07-07T03:27:53.107Z,0.00
2018-07-07T03:28:53.106Z,0.00
2018-07-07T03:29:53.105Z,0.00
2018-07-07T03:30:53.107Z,0.00
2018-07-07T03:31:53.103Z,0.00
2018-07-07T03:32:53.104Z,0.00
2018-07-07T03:33:53.108Z,0.00
2018-07-07T03:34:53.101Z,0.00
2018-07-07T03:35:53.102Z,0.00
2018-07-07T03:36:53.100Z,0.00
2018-07-07T03:37:53.099Z,0.00
2018-07-07T03:38:53.100Z,0.00
2018-07-07T03:39:53.100Z,0.00
2018-07-07T03:40:53.103Z,0.00
2018-07-07T03:41:53.097Z,0.00
2018-07-07T03:42:53.100Z,0.00
2018-07-07T03:43:53.100Z,0.00
2018-07-07T03:44:53.096Z,0.00
2018-07-07T03:45:53.095Z,0.00
2018-07-07T03:46:53.095Z,0.00
2018-07-07T03:47:53.094Z,0.00
2018-07-07T03:48:53.094Z,0.00
2018-07-07T03:49:53.094Z,0.00
2018-07-07T03:50:53.092Z,0.00
2018-07-07T03:51:53.093Z,0.00
2018-07-07T03:52:53.093Z,0.00
2018-07-07T03:53:53.089Z,0.00
2018-07-07T03:54:53.090Z,0.00
2018-07-07T03:55:53.089Z,0.00
2018-07-07T03:56:53.090Z,0.00
2018-07-07T03:57:53.090Z,0.00
2018-07-07T03:58:53.103Z,0.00
2018-07-07T03:59:53.088Z,0.00
2018-07-07T04:00:53.087Z,0.00
2018-07-07T04:01:53.089Z,0.00
2018-07-07T04:02:53.085Z,0.00
2018-07-07T04:03:53.085Z,5.63
2018-07-07T04:04:53.111Z,5.63
2018-07-07T04:05:53.084Z,5.63
2018-07-07T04:06:53.096Z,5.63
2018-07-07T04:07:53.083Z,5.63
2018-07-07T04:08:53.083Z,5.63
2018-07-07T04:09:53.082Z,5.63
2018-07-07T04:10:53.082Z,5.63
2018-07-07T04:11:53.079Z,5.63
2018-07-07T04:12:53.081Z,5.63
2018-07-07T04:13:53.078Z,11.25
2018-07-07T04:14:53.078Z,11.25
2018-07-07T04:15:53.081Z,11.25
2018-07-07T04:16:53.078Z,11.25
2018-07-07T04:17:53.080Z,16.88
2018-07-07T04:18:53.080Z,16.88
2018-07-07T04:19:53.077Z,16.88
2018-07-07T04:20:53.077Z,16.88
2018-07-07T04:21:53.076Z,22.50
2018-07-07T04:22:53.075Z,22.50
2018-07-07T04:23:53.075Z,22.50
2018-07-07T04:24:53.073Z,22.50
2018-07-07T04:25:53.073Z,22.50
2018-07-07T04:26:53.073Z,22.50
2018-07-07T04:27:53.072Z,28.13
2018-07-07T04:28:53.072Z,28.13
2018-07-07T04:29:53.071Z,28.13
2018-07-07T04:30:53.070Z,28.13
2018-07-07T04:31:53.070Z,28.13
2018-07-07T04:32:53.071Z,28.13
2018-07-07T04:33:53.070Z,28.13
2018-07-07T04:34:53.069Z,28.13
2018-07-07T04:35:53.069Z,28.13
2018-07-07T04:36:53.070Z,28.13
2018-07-07T04:37:53.068Z,28.13
2018-07-07T04:38:53.068Z,28.13
2018-07-07T04:39:53.068Z,28.13
2018-07-07T04:40:53.068Z,28.13
2018-07-07T04:41:53.066Z,33.75
2018-07-07T04:42:53.067Z,33.75
2018-07-07T04:43:53.066Z,39.38
2018-07-07T04:44:53.066Z,39.38
2018-07-07T04:45:53.103Z,39.38
2018-07-07T04:46:53.064Z,39.38
2018-07-07T04:47:53.065Z,39.38
2018-07-07T04:48:53.065Z,39.38
2018-07-07T04:49:53.063Z,39.38
2018-07-07T04:50:53.063Z,39.38
2018-07-07T04:51:53.063Z,39.38
2018-07-07T04:52:53.063Z,45.00
2018-07-07T04:53:53.062Z,45.00
2018-07-07T04:54:53.066Z,45.00
2018-07-07T04:55:53.065Z,56.25
2018-07-07T04:56:53.063Z,50.63
2018-07-07T04:57:53.061Z,56.25
2018-07-07T04:58:53.061Z,56.25
2018-07-07T04:59:53.062Z,56.25
2018-07-07T05:00:53.062Z,56.25
2018-07-07T05:01:53.063Z,56.25
2018-07-07T05:02:53.061Z,56.25
2018-07-07T05:03:53.060Z,56.25
2018-07-07T05:04:53.060Z,61.88
2018-07-07T05:05:53.060Z,61.88
2018-07-07T05:06:53.063Z,61.88
2018-07-07T05:07:53.060Z,61.88
2018-07-07T05:08:53.059Z,61.88
2018-07-07T05:09:53.060Z,67.50
2018-07-07T05:10:53.060Z,67.50
2018-07-07T05:11:53.061Z,67.50
2018-07-07T05:12:53.060Z,67.50
2018-07-07T05:13:53.058Z,67.50
2018-07-07T05:14:53.060Z,67.50
2018-07-07T05:15:53.060Z,67.50
2018-07-07T05:16:53.061Z,67.50
2018-07-07T05:17:53.060Z,67.50
2018-07-07T05:18:53.060Z,67.50
2018-07-07T05:19:53.060Z,73.13
2018-07-07T05:20:53.060Z,73.13
2018-07-07T05:21:53.064Z,78.75
2018-07-07T05:22:53.060Z,78.75
2018-07-07T05:23:53.061Z,78.75
2018-07-07T05:24:53.062Z,78.75
2018-07-07T05:25:53.065Z,78.75
2018-07-07T05:26:53.063Z,78.75
2018-07-07T05:27:53.061Z,78.75
2018-07-07T05:28:53.061Z,84.38
2018-07-07T05:29:53.091Z,84.38
2018-07-07T05:30:53.065Z,78.75
2018-07-07T05:31:53.178Z,78.75
2018-07-07T05:32:53.063Z,90.00
2018-07-07T05:33:53.063Z,90.00
2018-07-07T05:34:53.062Z,90.00
2018-07-07T05:35:53.066Z,90.00
2018-07-07T05:36:53.065Z,90.00
2018-07-07T05:37:53.063Z,84.38
2018-07-07T05:38:53.064Z,78.75
2018-07-07T05:39:53.064Z,73.13
2018-07-07T05:40:53.065Z,73.13
2018-07-07T05:41:53.066Z,73.13
2018-07-07T05:42:53.066Z,67.50
2018-07-07T05:43:53.066Z,61.88
2018-07-07T05:44:53.066Z,61.88
2018-07-07T05:45:53.108Z,56.25
2018-07-07T05:46:53.068Z,56.25
2018-07-07T05:47:53.067Z,56.25
2018-07-07T05:48:53.067Z,61.88
2018-07-07T05:49:53.068Z,73.13
2018-07-07T05:50:53.068Z,95.63
2018-07-07T05:51:53.068Z,101.25
2018-07-07T05:52:53.069Z,95.63
2018-07-07T05:53:53.069Z,95.63
2018-07-07T05:54:53.071Z,90.00
2018-07-07T05:55:53.070Z,95.63
2018-07-07T05:56:53.071Z,101.25
2018-07-07T05:57:53.071Z,112.50
2018-07-07T05:58:53.071Z,106.88
2018-07-07T05:59:53.072Z,112.50
2018-07-07T06:00:53.072Z,118.13
2018-07-07T06:01:53.073Z,112.50
2018-07-07T06:02:53.074Z,106.88
2018-07-07T06:03:53.075Z,112.50
2018-07-07T06:04:53.075Z,118.13
2018-07-07T06:05:53.075Z,106.88
2018-07-07T06:06:53.076Z,95.63
2018-07-07T06:07:53.077Z,90.00
2018-07-07T06:08:53.077Z,95.63
2018-07-07T06:09:53.078Z,101.25
2018-07-07T06:10:53.078Z,101.25
2018-07-07T06:11:53.079Z,101.25
2018-07-07T06:12:53.080Z,101.25
2018-07-07T06:13:53.080Z,101.25
2018-07-07T06:14:53.080Z,95.63
2018-07-07T06:15:53.084Z,95.63
2018-07-07T06:16:53.083Z,95.63
2018-07-07T06:17:53.084Z,90.00
2018-07-07T06:18:53.084Z,90.00
2018-07-07T06:19:53.084Z,90.00
2018-07-07T06:20:53.084Z,95.63
2018-07-07T06:21:53.086Z,101.25
2018-07-07T06:22:53.085Z,106.88
2018-07-07T06:23:53.088Z,106.88
2018-07-07T06:24:53.088Z,106.88
2018-07-07T06:25:53.087Z,106.88
2018-07-07T06:26:53.123Z,112.50
2018-07-07T06:27:53.090Z,123.75
2018-07-07T06:28:53.092Z,129.38
2018-07-07T06:29:53.090Z,151.88
2018-07-07T06:30:53.091Z,157.50
2018-07-07T06:31:53.096Z,168.75
2018-07-07T06:32:53.093Z,163.13
2018-07-07T06:33:53.093Z,151.88
2018-07-07T06:34:53.096Z,151.88
2018-07-07T06:35:53.096Z,163.13
2018-07-07T06:36:53.097Z,168.75
2018-07-07T06:37:53.100Z,146.25
2018-07-07T06:38:53.102Z,135.00
2018-07-07T06:39:53.099Z,135.00
2018-07-07T06:40:53.101Z,135.00
2018-07-07T06:41:53.101Z,112.50
2018-07-07T06:42:53.102Z,106.88
2018-07-07T06:43:53.104Z,118.13
2018-07-07T06:44:53.105Z,123.75
2018-07-07T06:45:53.106Z,129.38
2018-07-07T06:46:53.106Z,112.50
2018-07-07T06:47:53.109Z,73.13
2018-07-07T06:48:53.110Z,67.50
2018-07-07T06:49:53.109Z,67.50
2018-07-07T06:50:53.111Z,67.50
2018-07-07T06:51:53.115Z,67.50
2018-07-07T06:52:53.114Z,67.50
2018-07-07T06:53:53.139Z,61.88
2018-07-07T06:54:53.117Z,67.50
2018-07-07T06:55:53.116Z,73.13
2018-07-07T06:56:53.117Z,73.13
2018-07-07T06:57:53.118Z,67.50
2018-07-07T06:58:53.119Z,73.13
2018-07-07T06:59:53.126Z,67.50
2018-07-07T07:00:53.121Z,67.50
2018-07-07T07:01:53.121Z,73.13
2018-07-07T07:02:53.124Z,84.38
2018-07-07T07:03:53.124Z,101.25
2018-07-07T07:04:53.126Z,123.75
2018-07-07T07:05:53.130Z,135.00
2018-07-07T07:06:53.127Z,163.13
2018-07-07T07:07:53.127Z,180.00
2018-07-07T07:08:53.128Z,191.25
2018-07-07T07:09:53.129Z,196.88
2018-07-07T07:10:53.130Z,208.13
2018-07-07T07:11:53.152Z,213.75
2018-07-07T07:12:53.132Z,247.50
2018-07-07T07:13:53.132Z,241.88
2018-07-07T07:14:53.135Z,258.75
2018-07-07T07:15:53.136Z,281.25
2018-07-07T07:16:53.138Z,275.63
2018-07-07T07:17:53.138Z,247.50
2018-07-07T07:18:53.141Z,292.50
2018-07-07T07:19:53.172Z,281.25
2018-07-07T07:20:53.145Z,292.50
2018-07-07T07:21:53.145Z,315.00
2018-07-07T07:22:53.149Z,337.50
2018-07-07T07:23:53.155Z,298.13
2018-07-07T07:24:53.153Z,292.50
2018-07-07T07:25:53.164Z,236.25
2018-07-07T07:26:53.157Z,286.88
2018-07-07T07:27:53.158Z,315.00
2018-07-07T07:28:53.162Z,191.25
2018-07-07T07:29:53.163Z,236.25
2018-07-07T07:30:53.165Z,213.75
2018-07-07T07:31:53.168Z,714.38
2018-07-07T07:32:53.173Z,388.13
2018-07-07T07:33:53.173Z,270.00
2018-07-07T07:34:53.175Z,236.25
2018-07-07T07:35:53.177Z,298.13
2018-07-07T07:36:53.206Z,466.88
2018-07-07T07:37:53.185Z,286.88
2018-07-07T07:38:53.186Z,258.75
2018-07-07T07:39:53.188Z,213.75
2018-07-07T07:40:53.192Z,191.25
2018-07-07T07:41:53.194Z,168.75
2018-07-07T07:42:53.197Z,343.13
2018-07-07T07:43:53.203Z,163.13
2018-07-07T07:44:53.204Z,196.88
2018-07-07T07:45:53.205Z,180.00
2018-07-07T07:46:53.211Z,185.63
2018-07-07T07:47:53.210Z,202.50
2018-07-07T07:48:53.218Z,236.25
2018-07-07T07:49:53.362Z,264.38
2018-07-07T07:50:53.236Z,270.00
2018-07-07T07:51:53.275Z,286.88
2018-07-07T07:52:53.313Z,343.13
2018-07-07T07:53:53.227Z,354.38
2018-07-07T07:54:53.230Z,298.13
2018-07-07T07:55:53.232Z,545.63
2018-07-07T07:56:53.237Z,860.63
2018-07-07T07:57:53.239Z,421.88
2018-07-07T07:58:53.249Z,393.75
2018-07-07T07:59:53.246Z,405.00
2018-07-07T08:00:53.249Z,343.13
2018-07-07T08:01:53.252Z,399.38
2018-07-07T08:02:53.260Z,461.25
2018-07-07T08:03:53.262Z,720.00
2018-07-07T08:04:53.322Z,517.50
2018-07-07T08:05:53.271Z,483.75
2018-07-07T08:06:53.272Z,1411.88
2018-07-07T08:07:53.276Z,534.38
2018-07-07T08:08:53.282Z,281.25
2018-07-07T08:09:53.287Z,253.13
2018-07-07T08:10:53.289Z,275.63
2018-07-07T08:11:53.294Z,680.63
2018-07-07T08:12:53.298Z,438.75
2018-07-07T08:13:53.301Z,405.00
2018-07-07T08:14:53.307Z,1760.63
2018-07-07T08:15:53.310Z,703.13
2018-07-07T08:16:53.315Z,562.50
2018-07-07T08:17:53.320Z,1108.13
2018-07-07T08:18:53.324Z,933.75
2018-07-07T08:19:53.330Z,579.38
2018-07-07T08:20:53.335Z,613.13
2018-07-07T08:21:53.340Z,607.50
2018-07-07T08:22:53.376Z,770.63
2018-07-07T08:23:53.352Z,540.00
2018-07-07T08:24:53.357Z,1440.00
2018-07-07T08:25:53.362Z,416.25
2018-07-07T08:26:53.369Z,1884.38
2018-07-07T08:27:53.373Z,1260.00
2018-07-07T08:28:53.381Z,2030.63
2018-07-07T08:29:53.409Z,1569.38
2018-07-07T08:30:53.395Z,1108.13
2018-07-07T08:31:53.401Z,2092.50
2018-07-07T08:32:53.408Z,2086.88
2018-07-07T08:33:53.416Z,1940.63
2018-07-07T08:34:53.425Z,1856.25
2018-07-07T08:35:53.433Z,1968.75
2018-07-07T08:36:53.442Z,2171.25
2018-07-07T08:37:53.452Z,2019.38
2018-07-07T08:38:53.459Z,1991.25
2018-07-07T08:39:53.470Z,1974.38
2018-07-07T08:40:53.479Z,2030.63
2018-07-07T08:41:53.554Z,2002.50
2018-07-07T08:42:53.501Z,1890.00
2018-07-07T08:43:53.511Z,1878.75
2018-07-07T08:44:53.524Z,1850.63
2018-07-07T08:45:53.534Z,1980.00
2018-07-07T08:46:53.546Z,1980.00
2018-07-07T08:47:53.558Z,1985.63
2018-07-07T08:48:53.573Z,1890.00
2018-07-07T08:49:53.583Z,1794.38
2018-07-07T08:50:53.594Z,1833.75
2018-07-07T08:51:53.608Z,1811.25
2018-07-07T08:52:53.622Z,1839.38
2018-07-07T08:53:53.634Z,1912.50
2018-07-07T08:54:53.646Z,2143.13
2018-07-07T08:55:53.664Z,1980.00
2018-07-07T08:56:53.673Z,1878.75
2018-07-07T08:57:53.684Z,1828.13
2018-07-07T08:58:53.698Z,1850.63
2018-07-07T08:59:53.713Z,230.63
2018-07-07T09:00:53.730Z,185.63
2018-07-07T09:01:53.738Z,247.50
2018-07-07T09:02:53.975Z,168.75
2018-07-07T09:03:53.766Z,146.25
2018-07-07T09:04:53.774Z,140.63
2018-07-07T09:05:53.786Z,123.75
2018-07-07T09:06:53.794Z,123.75
2018-07-07T09:07:53.805Z,151.88
2018-07-07T09:08:54.076Z,174.38
2018-07-07T09:09:54.248Z,168.75
2018-07-07T09:10:53.831Z,180.00
2018-07-07T09:11:53.841Z,219.38
2018-07-07T09:12:53.849Z,264.38
2018-07-07T09:13:53.856Z,720.00
2018-07-07T09:14:53.866Z,1569.38
2018-07-07T09:15:53.873Z,472.50
2018-07-07T09:16:53.881Z,331.88
2018-07-07T09:17:53.887Z,208.13
2018-07-07T09:18:53.979Z,180.00
2018-07-07T09:19:53.903Z,213.75
2018-07-07T09:20:53.912Z,292.50
2018-07-07T09:21:53.916Z,202.50
2018-07-07T09:22:53.924Z,146.25
2018-07-07T09:23:53.932Z,112.50
2018-07-07T09:24:53.938Z,95.63
2018-07-07T09:25:53.943Z,84.38
2018-07-07T09:26:53.951Z,78.75
2018-07-07T09:27:53.956Z,78.75
2018-07-07T09:28:53.963Z,78.75
2018-07-07T09:29:53.967Z,84.38
2018-07-07T09:30:54.017Z,90.00
2018-07-07T09:31:53.980Z,95.63
2018-07-07T09:32:53.986Z,95.63
2018-07-07T09:33:53.993Z,112.50
2018-07-07T09:34:53.995Z,129.38
2018-07-07T09:35:54.003Z,151.88
2018-07-07T09:36:54.007Z,202.50
2018-07-07T09:37:54.011Z,331.88
2018-07-07T09:38:54.080Z,320.63
2018-07-07T09:39:54.022Z,331.88
2018-07-07T09:40:54.026Z,236.25
2018-07-07T09:41:54.031Z,658.13
2018-07-07T09:42:54.325Z,1327.50
2018-07-07T09:43:54.042Z,1237.50
2018-07-07T09:44:54.050Z,1254.38
2018-07-07T09:45:54.054Z,1254.38
2018-07-07T09:46:54.059Z,1310.63
2018-07-07T09:47:54.073Z,1338.75
2018-07-07T09:48:54.076Z,1299.38
2018-07-07T09:49:54.083Z,1265.63
2018-07-07T09:50:54.091Z,348.75
2018-07-07T09:51:54.100Z,326.25
2018-07-07T09:52:54.111Z,208.13
2018-07-07T09:53:54.402Z,168.75
2018-07-07T09:54:54.123Z,118.13
2018-07-07T09:55:54.131Z,95.63
2018-07-07T09:56:54.407Z,78.75
2018-07-07T09:57:54.453Z,67.50
2018-07-07T09:58:54.153Z,61.88
2018-07-07T09:59:54.161Z,61.88
2018-07-07T10:00:54.166Z,61.88
2018-07-07T10:01:54.230Z,67.50
2018-07-07T10:02:54.179Z,73.13
2018-07-07T10:03:54.185Z,78.75
2018-07-07T10:04:54.191Z,112.50
2018-07-07T10:05:54.196Z,84.38
2018-07-07T10:06:54.469Z,84.38
2018-07-07T10:07:54.208Z,84.38
2018-07-07T10:08:54.213Z,90.00
2018-07-07T10:09:54.217Z,95.63
2018-07-07T10:10:54.223Z,95.63
2018-07-07T10:11:54.229Z,101.25
2018-07-07T10:12:54.234Z,106.88
2018-07-07T10:13:54.280Z,118.13
2018-07-07T10:14:54.243Z,129.38
2018-07-07T10:15:54.505Z,140.63
2018-07-07T10:16:54.255Z,157.50
2018-07-07T10:17:54.258Z,174.38
2018-07-07T10:18:54.261Z,185.63
2018-07-07T10:19:54.266Z,202.50
2018-07-07T10:20:54.271Z,225.00
2018-07-07T10:21:54.274Z,258.75
2018-07-07T10:22:54.279Z,309.38
2018-07-07T10:23:54.284Z,573.75
2018-07-07T10:24:54.289Z,500.63
2018-07-07T10:25:54.292Z,556.88
2018-07-07T10:26:54.299Z,556.88
2018-07-07T10:27:54.305Z,354.38
2018-07-07T10:28:54.312Z,315.00
2018-07-07T10:29:54.317Z,320.63
2018-07-07T10:30:54.327Z,337.50
2018-07-07T10:31:54.333Z,320.63
2018-07-07T10:32:54.336Z,298.13
2018-07-07T10:33:54.341Z,303.75
2018-07-07T10:34:54.348Z,331.88
2018-07-07T10:35:54.356Z,360.00
2018-07-07T10:36:54.361Z,371.25
2018-07-07T10:37:54.369Z,292.50
2018-07-07T10:38:54.373Z,258.75
2018-07-07T10:39:54.668Z,253.13
2018-07-07T10:40:54.387Z,236.25
2018-07-07T10:41:54.676Z,225.00
2018-07-07T10:42:54.405Z,213.75
2018-07-07T10:43:54.471Z,202.50
2018-07-07T10:44:54.413Z,202.50
2018-07-07T10:45:54.607Z,219.38
2018-07-07T10:46:54.424Z,270.00
2018-07-07T10:47:54.431Z,500.63
2018-07-07T10:48:54.442Z,343.13
2018-07-07T10:49:54.442Z,444.38
2018-07-07T10:50:54.449Z,455.63
2018-07-07T10:51:54.456Z,405.00
2018-07-07T10:52:54.466Z,393.75
2018-07-07T10:53:54.470Z,382.50
2018-07-07T10:54:54.479Z,348.75
2018-07-07T10:55:54.484Z,388.13
2018-07-07T10:56:54.492Z,399.38
2018-07-07T10:57:54.500Z,376.88
2018-07-07T10:58:54.537Z,253.13
2018-07-07T10:59:54.516Z,258.75
2018-07-07T11:00:54.526Z,427.50
2018-07-07T11:01:54.533Z,450.00
2018-07-07T11:02:54.539Z,472.50
2018-07-07T11:03:54.549Z,292.50
2018-07-07T11:04:54.559Z,247.50
2018-07-07T11:05:54.569Z,236.25
2018-07-07T11:06:54.574Z,281.25
2018-07-07T11:07:54.583Z,478.13
2018-07-07T11:08:54.590Z,495.00
2018-07-07T11:09:54.598Z,495.00
2018-07-07T11:10:54.607Z,495.00
2018-07-07T11:11:54.759Z,511.88
2018-07-07T11:12:54.626Z,540.00
2018-07-07T11:13:54.635Z,523.13
2018-07-07T11:14:54.644Z,483.75
2018-07-07T11:15:54.800Z,466.88
2018-07-07T11:16:54.662Z,455.63
2018-07-07T11:17:54.670Z,455.63
2018-07-07T11:18:54.679Z,450.00
2018-07-07T11:19:54.721Z,438.75
2018-07-07T11:20:54.698Z,438.75
2018-07-07T11:21:54.707Z,427.50
2018-07-07T11:22:54.718Z,427.50
2018-07-07T11:23:54.726Z,421.88
2018-07-07T11:24:54.736Z,427.50
2018-07-07T11:25:54.747Z,410.63
2018-07-07T11:26:54.755Z,405.00
2018-07-07T11:27:54.765Z,410.63
2018-07-07T11:28:54.775Z,399.38
2018-07-07T11:29:54.808Z,388.13
2018-07-07T11:30:54.795Z,354.38
2018-07-07T11:31:54.805Z,376.88
2018-07-07T11:32:54.815Z,393.75
2018-07-07T11:33:54.826Z,416.25
2018-07-07T11:34:54.836Z,270.00
2018-07-07T11:35:55.112Z,253.13
2018-07-07T11:36:54.908Z,236.25
2018-07-07T11:37:54.865Z,225.00
2018-07-07T11:38:54.875Z,258.75
2018-07-07T11:39:54.885Z,253.13
2018-07-07T11:40:54.893Z,337.50
2018-07-07T11:41:54.903Z,410.63
2018-07-07T11:42:54.913Z,388.13
2018-07-07T11:43:54.920Z,174.38
2018-07-07T11:44:54.930Z,157.50
2018-07-07T11:45:54.938Z,151.88
2018-07-07T11:46:55.212Z,140.63
2018-07-07T11:47:54.957Z,146.25
2018-07-07T11:48:54.964Z,151.88
2018-07-07T11:49:54.972Z,146.25
2018-07-07T11:50:54.981Z,135.00
2018-07-07T11:51:54.988Z,140.63
2018-07-07T11:52:54.997Z,135.00
2018-07-07T11:53:55.005Z,140.63
2018-07-07T11:54:55.012Z,146.25
2018-07-07T11:55:55.017Z,140.63
2018-07-07T11:56:55.028Z,151.88
2018-07-07T11:57:55.033Z,157.50
2018-07-07T11:58:55.038Z,157.50
2018-07-07T11:59:55.052Z,174.38
2018-07-07T12:00:55.052Z,376.88
2018-07-07T12:01:55.084Z,399.38
2018-07-07T12:02:55.065Z,405.00
2018-07-07T12:03:55.072Z,241.88
2018-07-07T12:04:55.134Z,393.75
2018-07-07T12:05:55.084Z,337.50
2018-07-07T12:06:55.092Z,371.25
2018-07-07T12:08:00.831Z,298.13
2018-07-07T12:08:55.107Z,382.50
2018-07-07T12:09:55.113Z,376.88
2018-07-07T12:10:55.123Z,360.00
2018-07-07T12:11:55.132Z,343.13
2018-07-07T12:12:55.137Z,343.13
2018-07-07T12:13:55.145Z,315.00
2018-07-07T12:14:55.153Z,343.13
2018-07-07T12:15:55.162Z,326.25
2018-07-07T12:16:55.169Z,331.88
2018-07-07T12:17:55.177Z,331.88
2018-07-07T12:18:55.185Z,331.88
2018-07-07T12:19:55.194Z,331.88
2018-07-07T12:20:55.203Z,331.88
2018-07-07T12:21:55.211Z,337.50
2018-07-07T12:22:55.222Z,331.88
2018-07-07T12:23:55.231Z,331.88
2018-07-07T12:24:55.285Z,337.50
2018-07-07T12:25:55.248Z,343.13
2018-07-07T12:26:55.254Z,343.13
2018-07-07T12:27:55.263Z,196.88
2018-07-07T12:28:55.272Z,315.00
2018-07-07T12:29:55.279Z,163.13
2018-07-07T12:30:55.289Z,303.75
2018-07-07T12:31:55.298Z,135.00
2018-07-07T12:32:55.309Z,180.00
2018-07-07T12:33:55.313Z,140.63
2018-07-07T12:34:55.323Z,151.88
2018-07-07T12:35:55.331Z,151.88
2018-07-07T12:36:55.340Z,151.88
2018-07-07T12:37:55.346Z,151.88
2018-07-07T12:38:55.353Z,163.13
2018-07-07T12:39:55.361Z,151.88
2018-07-07T12:40:55.458Z,151.88
2018-07-07T12:41:55.379Z,191.25
2018-07-07T12:42:55.383Z,343.13
2018-07-07T12:43:55.389Z,298.13
2018-07-07T12:44:55.399Z,382.50
2018-07-07T12:45:55.472Z,405.00
2018-07-07T12:46:55.411Z,405.00
2018-07-07T12:47:55.419Z,326.25